Back to Top

Language: 

My Weather Underground Personal Weather Station Historical Data with Graphs...

Delerius Weather Station Historical Data
Daily Summary for December 2, 2017 Units:  Metric    English   Both
« Previous Day
Next Day »
Daily Weekly Monthly Yearly Custom
  High: Low: Average:
Temperature: 8.3 °C 3.4 °C 6.9 °C
Dew Point: 6.4 °C -0.3 °C 5.1 °C
Humidity: 92 % 77 % 88 %
Wind Speed: 14.5 km/h 0 km/h 8.5 km/h
Wind Gust: 24.1 km/h - -
Wind:- - WNW
Pressure: 1026.6 hPa 1024.3 hPa -
Precipitation: 0 mm    
Historical Graphs
 
 
Tabular Data for December 2, 2017
Time Temperature Dew Point Pressure Wind Wind Speed Wind Gust Humidity Rainfall Rate (Hourly) solar Conditions
00:05 3.5 °C 0 °C 1026.6 hPa WNW 6.4 km/h 8 km/h 78 % 0 mm 0 W/m2
00:10 3.5 °C 0 °C 1026.6 hPa WNW 6.4 km/h 9.7 km/h 78 % 0 mm 0 W/m2
00:15 3.5 °C -0.2 °C 1026.6 hPa WNW 4.8 km/h 8 km/h 77 % 0 mm 0 W/m2
00:20 3.4 °C -0.3 °C 1026.6 hPa WNW 4.8 km/h 9.7 km/h 77 % 0 mm 0 W/m2
00:25 3.4 °C -0.3 °C 1026.6 hPa WNW 3.2 km/h 8 km/h 77 % 0 mm 0 W/m2
00:30 3.5 °C -0.2 °C 1026.6 hPa WNW 4.8 km/h 9.7 km/h 77 % 0 mm 0 W/m2
00:35 3.4 °C -0.3 °C 1026.6 hPa WNW 1.6 km/h 6.4 km/h 77 % 0 mm 0 W/m2
00:40 3.5 °C -0.2 °C 1026.6 hPa WNW 4.8 km/h 8 km/h 77 % 0 mm 0 W/m2
00:45 3.5 °C 0 °C 1026.6 hPa WNW 1.6 km/h 6.4 km/h 78 % 0 mm 0 W/m2
00:50 3.4 °C -0.1 °C 1026.6 hPa Calm   3.2 km/h 78 % 0 mm 0 W/m2
00:55 3.4 °C -0.1 °C 1026.6 hPa Calm   1.6 km/h 78 % 0 mm 0 W/m2
01:05 3.4 °C -0.1 °C 1026.6 hPa WNW 1.6 km/h 3.2 km/h 78 % 0 mm 0 W/m2
01:10 3.5 °C 0 °C 1026.6 hPa Calm   1.6 km/h 78 % 0 mm 0 W/m2
01:20 3.5 °C 0 °C 1026.6 hPa Calm   4.8 km/h 78 % 0 mm 0 W/m2
11:30 7.9 °C 6.1 °C 1025.3 hPa NW 9.7 km/h 11.3 km/h 88 % 0 mm 109 W/m2
11:31 7.9 °C 6.1 °C 1025.3 hPa WNW 11.3 km/h 14.5 km/h 88 % 0 mm 109 W/m2
11:32 7.9 °C 6.1 °C 1025.3 hPa WNW 11.3 km/h 14.5 km/h 88 % 0 mm 113 W/m2
11:37 7.9 °C 6.1 °C 1025.3 hPa WNW 11.3 km/h 17.7 km/h 88 % 0 mm 132 W/m2
11:42 7.9 °C 6.1 °C 1025.3 hPa WNW 9.7 km/h 14.5 km/h 88 % 0 mm 134 W/m2
11:52 8 °C 6.1 °C 1025.3 hPa WNW 11.3 km/h 16.1 km/h 88 % 0 mm 149 W/m2
11:57 8.1 °C 6.2 °C 1025.3 hPa WNW 12.9 km/h 19.3 km/h 88 % 0 mm 135 W/m2
12:07 8.1 °C 6.2 °C 1024.9 hPa WNW 14.5 km/h 20.9 km/h 88 % 0 mm 116 W/m2
12:17 8.1 °C 6.1 °C 1024.9 hPa WNW 12.9 km/h 19.3 km/h 87 % 0 mm 128 W/m2
12:22 8.1 °C 6.1 °C 1024.9 hPa NW 11.3 km/h 17.7 km/h 87 % 0 mm 158 W/m2
12:27 8.1 °C 6.2 °C 1024.9 hPa WNW 12.9 km/h 17.7 km/h 88 % 0 mm 165 W/m2
12:37 8.3 °C 6.4 °C 1024.9 hPa WNW 12.9 km/h 19.3 km/h 88 % 0 mm 116 W/m2
12:42 8.3 °C 6.3 °C 1024.6 hPa WNW 12.9 km/h 19.3 km/h 87 % 0 mm 90 W/m2
12:47 8.3 °C 6.3 °C 1024.6 hPa NW 11.3 km/h 16.1 km/h 87 % 0 mm 97 W/m2
12:52 8.3 °C 6.3 °C 1024.6 hPa WNW 11.3 km/h 16.1 km/h 87 % 0 mm 93 W/m2
12:57 8.3 °C 6.3 °C 1024.6 hPa WNW 9.7 km/h 16.1 km/h 87 % 0 mm 79 W/m2
13:02 8.3 °C 6.3 °C 1024.9 hPa WNW 12.9 km/h 17.7 km/h 87 % 0 mm 86 W/m2
13:07 8.3 °C 6.3 °C 1024.6 hPa WNW 11.3 km/h 16.1 km/h 87 % 0 mm 88 W/m2
13:12 8.3 °C 6.3 °C 1024.6 hPa WNW 9.7 km/h 17.7 km/h 87 % 0 mm 90 W/m2
13:17 8.3 °C 6.3 °C 1024.6 hPa WNW 12.9 km/h 17.7 km/h 87 % 0 mm 70 W/m2
13:22 8.3 °C 6.3 °C 1024.6 hPa NW 8 km/h 11.3 km/h 87 % 0 mm 58 W/m2
13:27 8.3 °C 6.3 °C 1024.6 hPa WNW 11.3 km/h 14.5 km/h 87 % 0 mm 56 W/m2
13:32 8.3 °C 6.3 °C 1024.6 hPa WNW 9.7 km/h 14.5 km/h 87 % 0 mm 69 W/m2
13:37 8.3 °C 6.3 °C 1024.6 hPa WNW 11.3 km/h 14.5 km/h 87 % 0 mm 74 W/m2
13:42 8.3 °C 6.4 °C 1024.6 hPa WNW 8 km/h 11.3 km/h 88 % 0 mm 72 W/m2
13:47 8.2 °C 6.3 °C 1024.6 hPa WNW 12.9 km/h 17.7 km/h 88 % 0 mm 72 W/m2
13:52 8.2 °C 6.3 °C 1024.6 hPa WNW 9.7 km/h 12.9 km/h 88 % 0 mm 81 W/m2
13:57 8.2 °C 6.3 °C 1024.6 hPa WNW 9.7 km/h 11.3 km/h 88 % 0 mm 77 W/m2
14:02 8.3 °C 6.4 °C 1024.6 hPa WNW 8 km/h 12.9 km/h 88 % 0 mm 74 W/m2
14:08 8.2 °C 6.3 °C 1024.6 hPa WNW 12.9 km/h 17.7 km/h 88 % 0 mm 65 W/m2
14:13 8.2 °C 6.3 °C 1024.6 hPa WNW 12.9 km/h 19.3 km/h 88 % 0 mm 76 W/m2
14:18 8.2 °C 6.3 °C 1024.6 hPa WNW 12.9 km/h 17.7 km/h 88 % 0 mm 81 W/m2
14:23 8.2 °C 6.3 °C 1024.6 hPa WNW 12.9 km/h 20.9 km/h 88 % 0 mm 74 W/m2
14:28 8.2 °C 6.2 °C 1024.6 hPa WNW 12.9 km/h 19.3 km/h 87 % 0 mm 67 W/m2
14:33 8.1 °C 6.1 °C 1024.6 hPa WNW 11.3 km/h 16.1 km/h 87 % 0 mm 58 W/m2
14:38 8.1 °C 6.2 °C 1024.6 hPa WNW 9.7 km/h 17.7 km/h 88 % 0 mm 63 W/m2
14:43 8.1 °C 6.1 °C 1024.6 hPa WNW 12.9 km/h 17.7 km/h 87 % 0 mm 37 W/m2
14:53 8.1 °C 6.1 °C 1024.6 hPa WNW 9.7 km/h 14.5 km/h 87 % 0 mm 28 W/m2
14:58 8 °C 5.9 °C 1024.6 hPa WNW 9.7 km/h 12.9 km/h 87 % 0 mm 32 W/m2
15:08 7.9 °C 6.1 °C 1024.6 hPa WNW 8 km/h 11.3 km/h 88 % 0 mm 33 W/m2
15:13 7.9 °C 6.1 °C 1024.6 hPa WNW 9.7 km/h 14.5 km/h 88 % 0 mm 28 W/m2
15:18 7.9 °C 6.1 °C 1024.6 hPa WNW 9.7 km/h 12.9 km/h 88 % 0 mm 19 W/m2
15:23 7.8 °C 5.9 °C 1024.6 hPa WNW 8 km/h 12.9 km/h 88 % 0 mm 21 W/m2
15:33 7.8 °C 5.9 °C 1024.6 hPa WNW 4.8 km/h 8 km/h 88 % 0 mm 14 W/m2
15:38 7.7 °C 5.8 °C 1024.6 hPa WNW 6.4 km/h 9.7 km/h 88 % 0 mm 11 W/m2
15:43 7.6 °C 5.7 °C 1024.6 hPa WNW 8 km/h 11.3 km/h 88 % 0 mm 9 W/m2
15:48 7.4 °C 5.6 °C 1024.6 hPa WNW 6.4 km/h 9.7 km/h 88 % 0 mm 11 W/m2
15:53 7.3 °C 5.4 °C 1024.6 hPa WNW 4.8 km/h 9.7 km/h 88 % 0 mm 9 W/m2
15:58 7.2 °C 5.3 °C 1024.3 hPa WNW 4.8 km/h 8 km/h 88 % 0 mm 0 W/m2
16:03 7.1 °C 5.2 °C 1024.3 hPa WNW 3.2 km/h 8 km/h 88 % 0 mm 0 W/m2
16:13 6.8 °C 4.9 °C 1024.6 hPa WNW 6.4 km/h 9.7 km/h 88 % 0 mm 0 W/m2
16:18 6.7 °C 5 °C 1024.6 hPa WNW 6.4 km/h 9.7 km/h 89 % 0 mm 0 W/m2
16:28 6.4 °C 4.7 °C 1024.6 hPa WNW 6.4 km/h 9.7 km/h 89 % 0 mm 0 W/m2
16:33 6.3 °C 4.6 °C 1024.3 hPa WNW 4.8 km/h 9.7 km/h 89 % 0 mm 0 W/m2
16:38 6.2 °C 4.5 °C 1024.3 hPa WNW 6.4 km/h 8 km/h 89 % 0 mm 0 W/m2
16:43 6.1 °C 4.4 °C 1024.3 hPa WNW 8 km/h 11.3 km/h 89 % 0 mm 0 W/m2
16:48 5.9 °C 4.2 °C 1024.6 hPa WNW 8 km/h 11.3 km/h 89 % 0 mm 0 W/m2
16:53 5.9 °C 4.2 °C 1024.6 hPa WNW 8 km/h 11.3 km/h 89 % 0 mm 0 W/m2
16:58 5.9 °C 4.4 °C 1024.6 hPa WNW 6.4 km/h 11.3 km/h 90 % 0 mm 0 W/m2
17:12 5.9 °C 4.4 °C 1024.3 hPa WNW 6.4 km/h 9.7 km/h 90 % 0 mm 0 W/m2
17:17 5.9 °C 4.4 °C 1024.6 hPa WNW 6.4 km/h 9.7 km/h 90 % 0 mm 0 W/m2
17:22 6 °C 4.5 °C 1024.3 hPa West 3.2 km/h 6.4 km/h 90 % 0 mm 0 W/m2
17:27 6.1 °C 4.6 °C 1024.3 hPa West 4.8 km/h 8 km/h 90 % 0 mm 0 W/m2
17:42 6.4 °C 5.1 °C 1024.6 hPa WNW 9.7 km/h 12.9 km/h 91 % 0 mm 0 W/m2
17:47 6.5 °C 5 °C 1024.6 hPa WNW 8 km/h 11.3 km/h 90 % 0 mm 0 W/m2
17:57 6.6 °C 5.1 °C 1024.6 hPa NW 6.4 km/h 14.5 km/h 90 % 0 mm 0 W/m2
18:02 6.7 °C 5.2 °C 1024.6 hPa NW 4.8 km/h 8 km/h 90 % 0 mm 0 W/m2
18:07 6.7 °C 5.2 °C 1024.6 hPa WNW 8 km/h 11.3 km/h 90 % 0 mm 0 W/m2
18:17 6.8 °C 5.3 °C 1024.6 hPa NW 8 km/h 17.7 km/h 90 % 0 mm 0 W/m2
18:23 6.9 °C 5.4 °C 1024.6 hPa WNW 9.7 km/h 14.5 km/h 90 % 0 mm 0 W/m2
18:33 7 °C 5.4 °C 1024.6 hPa WNW 8 km/h 12.9 km/h 90 % 0 mm 0 W/m2
18:38 7 °C 5.4 °C 1024.6 hPa WNW 8 km/h 11.3 km/h 90 % 0 mm 0 W/m2
18:43 7.1 °C 5.6 °C 1024.6 hPa West 8 km/h 11.3 km/h 90 % 0 mm 0 W/m2
18:48 7.1 °C 5.6 °C 1024.6 hPa West 8 km/h 14.5 km/h 90 % 0 mm 0 W/m2
18:53 7.1 °C 5.6 °C 1024.6 hPa WNW 11.3 km/h 14.5 km/h 90 % 0 mm 0 W/m2
18:58 7.1 °C 5.6 °C 1024.6 hPa WNW 8 km/h 12.9 km/h 90 % 0 mm 0 W/m2
19:08 7.1 °C 5.6 °C 1024.6 hPa WNW 9.7 km/h 16.1 km/h 90 % 0 mm 0 W/m2
19:13 7.2 °C 5.7 °C 1024.6 hPa WNW 9.7 km/h 14.5 km/h 90 % 0 mm 0 W/m2
19:23 7.1 °C 5.6 °C 1024.6 hPa WNW 9.7 km/h 16.1 km/h 90 % 0 mm 0 W/m2
19:28 7.1 °C 5.6 °C 1024.6 hPa WNW 8 km/h 12.9 km/h 90 % 0 mm 0 W/m2
19:33 7.1 °C 5.6 °C 1024.6 hPa WNW 9.7 km/h 12.9 km/h 90 % 0 mm 0 W/m2
19:38 7 °C 5.4 °C 1024.6 hPa WNW 6.4 km/h 11.3 km/h 90 % 0 mm 0 W/m2
19:43 6.9 °C 5.4 °C 1024.6 hPa WNW 6.4 km/h 9.7 km/h 90 % 0 mm 0 W/m2
19:48 6.8 °C 5.3 °C 1024.6 hPa WNW 6.4 km/h 9.7 km/h 90 % 0 mm 0 W/m2
19:53 6.8 °C 5.3 °C 1024.6 hPa WNW 6.4 km/h 9.7 km/h 90 % 0 mm 0 W/m2
19:58 6.7 °C 5.2 °C 1024.3 hPa WNW 6.4 km/h 8 km/h 90 % 0 mm 0 W/m2
20:03 6.7 °C 5.2 °C 1024.3 hPa WNW 4.8 km/h 8 km/h 90 % 0 mm 0 W/m2
20:18 6.5 °C 5.1 °C 1024.3 hPa WNW 4.8 km/h 8 km/h 91 % 0 mm 0 W/m2
20:28 6.4 °C 5.1 °C 1024.3 hPa WNW 4.8 km/h 8 km/h 91 % 0 mm 0 W/m2
20:33 6.4 °C 5.1 °C 1024.3 hPa WNW 4.8 km/h 8 km/h 91 % 0 mm 0 W/m2
20:43 6.3 °C 4.9 °C 1024.3 hPa WNW 6.4 km/h 11.3 km/h 91 % 0 mm 0 W/m2
20:48 6.4 °C 5.2 °C 1024.3 hPa WNW 4.8 km/h 9.7 km/h 92 % 0 mm 0 W/m2
20:58 6.5 °C 5.3 °C 1024.3 hPa WNW 6.4 km/h 9.7 km/h 92 % 0 mm 0 W/m2
21:03 6.5 °C 5.3 °C 1024.3 hPa WNW 6.4 km/h 9.7 km/h 92 % 0 mm 0 W/m2
21:08 6.5 °C 5.3 °C 1024.3 hPa WNW 4.8 km/h 8 km/h 92 % 0 mm 0 W/m2
21:18 6.5 °C 5.3 °C 1024.3 hPa WNW 9.7 km/h 12.9 km/h 92 % 0 mm 0 W/m2
21:23 6.6 °C 5.4 °C 1024.3 hPa WNW 9.7 km/h 14.5 km/h 92 % 0 mm 0 W/m2
21:28 6.6 °C 5.4 °C 1024.3 hPa WNW 8 km/h 12.9 km/h 92 % 0 mm 0 W/m2
21:48 6.8 °C 5.4 °C 1024.3 hPa WNW 9.7 km/h 16.1 km/h 91 % 0 mm 0 W/m2
21:53 6.8 °C 5.4 °C 1024.3 hPa WNW 9.7 km/h 14.5 km/h 91 % 0 mm 0 W/m2
22:03 7 °C 5.6 °C 1024.3 hPa WNW 12.9 km/h 24.1 km/h 91 % 0 mm 0 W/m2
22:08 7.1 °C 5.7 °C 1024.3 hPa WNW 12.9 km/h 19.3 km/h 91 % 0 mm 0 W/m2
22:15 7.1 °C 5.7 °C 1024.3 hPa WNW 11.3 km/h 19.3 km/h 91 % 0 mm 0 W/m2
22:30 7.3 °C 5.9 °C 1024.3 hPa WNW 12.9 km/h 19.3 km/h 91 % 0 mm 0 W/m2
22:35 7.3 °C 5.9 °C 1024.3 hPa WNW 11.3 km/h 20.9 km/h 91 % 0 mm 0 W/m2
22:40 7.4 °C 6 °C 1024.3 hPa WNW 12.9 km/h 20.9 km/h 91 % 0 mm 0 W/m2
22:45 7.4 °C 6 °C 1024.3 hPa WNW 12.9 km/h 24.1 km/h 91 % 0 mm 0 W/m2
22:50 7.5 °C 6.1 °C 1024.3 hPa WNW 12.9 km/h 17.7 km/h 91 % 0 mm 0 W/m2
22:55 7.6 °C 6.1 °C 1024.3 hPa WNW 9.7 km/h 14.5 km/h 90 % 0 mm 0 W/m2
23:10 7.6 °C 6.1 °C 1024.3 hPa WNW 12.9 km/h 17.7 km/h 90 % 0 mm 0 W/m2
23:15 7.6 °C 6.1 °C 1024.3 hPa WNW 12.9 km/h 19.3 km/h 90 % 0 mm 0 W/m2
23:20 7.7 °C 6.2 °C 1024.3 hPa WNW 11.3 km/h 20.9 km/h 90 % 0 mm 0 W/m2
23:25 7.7 °C 6.2 °C 1024.3 hPa NW 11.3 km/h 19.3 km/h 90 % 0 mm 0 W/m2
23:30 7.7 °C 6.3 °C 1024.3 hPa WNW 14.5 km/h 19.3 km/h 91 % 0 mm 0 W/m2
23:35 7.7 °C 6.2 °C 1024.3 hPa WNW 14.5 km/h 19.3 km/h 90 % 0 mm 0 W/m2
23:45 7.7 °C 6.2 °C 1024.3 hPa WNW 12.9 km/h 17.7 km/h 90 % 0 mm 0 W/m2
23:50 7.7 °C 6.2 °C 1024.3 hPa WNW 12.9 km/h 17.7 km/h 90 % 0 mm 0 W/m2
23:55 7.7 °C 6.2 °C 1024.3 hPa WNW 8 km/h 12.9 km/h 90 % 0 mm 0 W/m2
Delerius-Weather
Compliments of Weather Underground - 1.5 mb

Data updates at regular intervals.